Time;durP1;ratioP1;P1;durP2;ratioP2;P2;SDS_P1;SDS_P2;PMS_P1;PMS_P2;Temp;Humidity;BMP_temperature;BMP_pressure;BME280_temperature;BME280_humidity;BME280_pressure;Samples;Min_cycle;Max_cycle;Signal;HPM_P1;HPM_P2
2023/04/23 00:00:37;;;;;;;;;;;14.50;99.90;;;;;;5124892;28;20282;-71
2023/04/23 00:03:08;;;;;;;;;;;14.60;99.90;;;;;;5125245;28;19919;-71
2023/04/23 00:05:36;;;;;;;;;;;14.50;99.90;;;;;;5125050;28;19926;-69
2023/04/23 00:08:03;;;;;;;;;;;14.50;99.90;;;;;;5124421;28;19926;-72
2023/04/23 00:10:31;;;;;;;;;;;14.40;99.90;;;;;;5124738;28;19978;-69
2023/04/23 00:12:57;;;;;;;;;;;14.40;99.90;;;;;;5125024;28;20000;-69
2023/04/23 00:15:24;;;;;;;;;;;14.40;99.90;;;;;;5124500;28;19987;-69
2023/04/23 00:17:51;;;;;;;;;;;14.40;99.90;;;;;;5124272;28;20264;-69
2023/04/23 00:20:17;;;;;;;;;;;14.40;99.90;;;;;;5124863;28;19955;-69
2023/04/23 00:22:44;;;;;;;;;;;14.30;99.90;;;;;;5124560;28;19920;-71
2023/04/23 00:25:11;;;;;;;;;;;14.30;99.90;;;;;;5124616;28;19982;-69
2023/04/23 00:27:39;;;;;;;;;;;14.20;99.90;;;;;;5124541;28;19999;-69
2023/04/23 00:30:06;;;;;;;;;;;14.20;99.90;;;;;;5124321;28;20158;-69
2023/04/23 00:32:32;;;;;;;;;;;14.20;99.90;;;;;;5131822;27;19978;-69
2023/04/23 00:34:59;;;;;;;;;;;14.20;99.90;;;;;;5124430;28;19920;-68
2023/04/23 00:37:26;;;;;;;;;;;14.20;99.90;;;;;;5123894;28;19920;-70
2023/04/23 00:39:53;;;;;;;;;;;14.20;99.90;;;;;;5121864;28;19983;-68
2023/04/23 00:42:20;;;;;;;;;;;14.20;99.90;;;;;;5124501;28;19920;-70
2023/04/23 00:44:48;;;;;;;;;;;14.20;99.90;;;;;;5124364;28;19926;-70
2023/04/23 00:47:15;;;;;;;;;;;14.20;99.90;;;;;;5122505;28;19951;-69
2023/04/23 00:49:42;;;;;;;;;;;14.10;99.90;;;;;;5123047;28;19920;-71
2023/04/23 00:52:10;;;;;;;;;;;14.10;99.90;;;;;;5122811;28;20385;-69
2023/04/23 00:54:37;;;;;;;;;;;14.10;99.90;;;;;;5124291;28;19986;-69
2023/04/23 00:57:06;;;;;;;;;;;14.10;99.90;;;;;;5142390;27;19962;-69
2023/04/23 00:59:33;;;;;;;;;;;14.10;99.90;;;;;;5144784;27;19919;-71
2023/04/23 01:02:01;;;;;;;;;;;14.10;99.90;;;;;;5144660;27;19919;-69
2023/04/23 01:04:30;;;;;;;;;;;14.10;99.90;;;;;;5144444;27;19920;-69
2023/04/23 01:06:57;;;;;;;;;;;14.10;99.90;;;;;;5144352;27;19982;-70
2023/04/23 01:09:26;;;;;;;;;;;14.10;99.90;;;;;;5144655;27;19969;-70
2023/04/23 01:11:53;;;;;;;;;;;14.00;99.90;;;;;;5144746;27;20159;-69
2023/04/23 01:14:20;;;;;;;;;;;14.00;99.90;;;;;;5144341;27;19919;-71
2023/04/23 01:16:46;;;;;;;;;;;14.00;99.90;;;;;;5143767;27;19920;-69
2023/04/23 01:19:14;;;;;;;;;;;14.00;99.90;;;;;;5135950;27;19979;-69
2023/04/23 01:21:42;;;;;;;;;;;14.00;99.90;;;;;;5123569;28;19920;-70
2023/04/23 01:24:10;;;;;;;;;;;14.00;99.90;;;;;;5123623;28;19962;-70
2023/04/23 01:26:37;;;;;;;;;;;13.90;99.90;;;;;;5123183;28;19920;-68
2023/04/23 01:29:03;;;;;;;;;;;14.00;99.90;;;;;;5123900;28;19919;-71
2023/04/23 01:31:30;;;;;;;;;;;13.90;99.90;;;;;;5123796;28;19920;-69
2023/04/23 01:33:57;;;;;;;;;;;13.90;99.90;;;;;;5123390;28;20290;-71
2023/04/23 01:36:24;;;;;;;;;;;13.90;99.90;;;;;;5122606;28;19991;-70
2023/04/23 01:38:51;;;;;;;;;;;13.90;99.90;;;;;;5123354;28;19954;-69
2023/04/23 01:41:19;;;;;;;;;;;13.80;99.90;;;;;;5123807;28;19985;-69
2023/04/23 01:43:46;;;;;;;;;;;13.80;99.90;;;;;;5123836;28;19993;-70
2023/04/23 01:46:13;;;;;;;;;;;13.80;99.90;;;;;;5123129;28;20180;-70
2023/04/23 01:48:40;;;;;;;;;;;13.70;99.90;;;;;;5123704;28;19920;-69
2023/04/23 01:51:07;;;;;;;;;;;13.70;99.90;;;;;;5123626;28;19962;-71
2023/04/23 01:53:34;;;;;;;;;;;13.70;99.90;;;;;;5123394;28;20203;-71
2023/04/23 01:56:01;;;;;;;;;;;13.70;99.90;;;;;;5123229;28;19988;-70
2023/04/23 01:58:29;;;;;;;;;;;13.70;99.90;;;;;;5123263;28;19939;-68
2023/04/23 02:00:56;;;;;;;;;;;13.70;99.90;;;;;;5123565;28;20127;-69
2023/04/23 02:03:23;;;;;;;;;;;13.70;99.90;;;;;;5123533;28;19936;-68
2023/04/23 02:05:50;;;;;;;;;;;13.70;99.90;;;;;;5123416;28;19926;-69
2023/04/23 02:08:16;;;;;;;;;;;13.70;99.90;;;;;;5123326;28;19942;-71
2023/04/23 02:10:43;;;;;;;;;;;13.70;99.90;;;;;;5123322;28;19926;-69
2023/04/23 02:13:10;;;;;;;;;;;13.70;99.90;;;;;;5123377;28;20162;-69
2023/04/23 02:15:39;;;;;;;;;;;13.60;99.90;;;;;;5123262;28;19975;-70
2023/04/23 02:18:06;;;;;;;;;;;13.50;99.90;;;;;;5122983;28;19923;-71
2023/04/23 02:20:32;;;;;;;;;;;13.50;99.90;;;;;;5123088;28;19926;-70
2023/04/23 02:22:59;;;;;;;;;;;13.50;99.90;;;;;;5123393;28;19979;-70
2023/04/23 02:25:25;;;;;;;;;;;13.40;99.90;;;;;;5122937;28;19983;-70
2023/04/23 02:27:52;;;;;;;;;;;13.40;99.90;;;;;;5122778;28;19959;-69
2023/04/23 02:30:19;;;;;;;;;;;13.30;99.90;;;;;;5122971;28;20255;-69
2023/04/23 02:32:47;;;;;;;;;;;13.30;99.90;;;;;;5123101;28;19989;-69
2023/04/23 02:35:14;;;;;;;;;;;13.30;99.90;;;;;;5126307;28;20208;-69
2023/04/23 02:37:40;;;;;;;;;;;13.20;99.90;;;;;;5126576;28;19962;-69
2023/04/23 02:40:09;;;;;;;;;;;13.20;99.90;;;;;;5126065;28;19999;-69
2023/04/23 02:42:35;;;;;;;;;;;13.20;99.90;;;;;;5126765;28;19920;-69
2023/04/23 02:45:02;;;;;;;;;;;13.10;99.90;;;;;;5126470;28;19978;-69
2023/04/23 02:47:30;;;;;;;;;;;13.00;99.90;;;;;;5117833;28;19982;-70
2023/04/23 02:49:58;;;;;;;;;;;13.00;99.90;;;;;;5136643;27;19951;-69
2023/04/23 02:52:24;;;;;;;;;;;13.00;99.90;;;;;;5147342;27;19919;-69
2023/04/23 02:54:51;;;;;;;;;;;12.90;99.90;;;;;;5146799;27;20177;-70
2023/04/23 02:57:18;;;;;;;;;;;12.90;99.90;;;;;;5146176;27;19987;-70
2023/04/23 02:59:45;;;;;;;;;;;12.80;99.90;;;;;;5147188;27;19919;-69
2023/04/23 03:02:11;;;;;;;;;;;12.80;99.90;;;;;;5146866;27;20084;-69
2023/04/23 03:04:38;;;;;;;;;;;12.70;99.90;;;;;;5146731;27;19962;-71
2023/04/23 03:07:06;;;;;;;;;;;12.60;99.90;;;;;;5145989;27;19919;-68
2023/04/23 03:09:33;;;;;;;;;;;12.50;99.90;;;;;;5146429;27;19990;-69
2023/04/23 03:12:01;;;;;;;;;;;12.30;99.90;;;;;;5146857;27;19926;-74
2023/04/23 03:14:27;;;;;;;;;;;12.30;99.90;;;;;;5146681;27;19926;-69
2023/04/23 03:16:54;;;;;;;;;;;12.20;99.90;;;;;;5145969;27;19920;-71
2023/04/23 03:19:21;;;;;;;;;;;12.10;99.90;;;;;;5146750;27;20017;-69
2023/04/23 03:21:47;;;;;;;;;;;12.10;99.90;;;;;;5146569;27;19994;-70
2023/04/23 03:24:16;;;;;;;;;;;12.10;99.90;;;;;;5145341;27;19919;-69
2023/04/23 03:26:42;;;;;;;;;;;12.00;99.90;;;;;;5125710;28;19920;-68
2023/04/23 03:29:09;;;;;;;;;;;12.00;99.90;;;;;;5125363;28;19920;-70
2023/04/23 03:31:36;;;;;;;;;;;12.00;99.90;;;;;;5125700;28;19926;-69
2023/04/23 03:34:02;;;;;;;;;;;12.00;99.90;;;;;;5125823;28;19998;-69
2023/04/23 03:36:29;;;;;;;;;;;12.00;99.90;;;;;;5124710;28;20115;-70
2023/04/23 03:38:56;;;;;;;;;;;12.00;99.90;;;;;;5138387;27;19982;-70
2023/04/23 03:41:24;;;;;;;;;;;11.90;99.90;;;;;;5146192;27;19990;-69
2023/04/23 03:43:50;;;;;;;;;;;11.90;99.90;;;;;;5145993;27;19942;-69
2023/04/23 03:46:17;;;;;;;;;;;11.90;99.90;;;;;;5144602;27;19986;-68
2023/04/23 03:48:43;;;;;;;;;;;11.90;99.90;;;;;;5146158;27;19986;-69
2023/04/23 03:51:10;;;;;;;;;;;11.90;99.90;;;;;;5145729;27;20203;-69
2023/04/23 03:53:37;;;;;;;;;;;11.90;99.90;;;;;;5145946;27;19991;-69
2023/04/23 03:56:03;;;;;;;;;;;11.90;99.90;;;;;;5145396;27;19986;-69
2023/04/23 03:58:31;;;;;;;;;;;11.90;99.90;;;;;;5145483;27;20120;-69
2023/04/23 04:00:58;;;;;;;;;;;11.90;99.90;;;;;;5145758;27;19939;-69
2023/04/23 04:03:25;;;;;;;;;;;11.80;99.90;;;;;;5145918;27;19986;-69
2023/04/23 04:05:52;;;;;;;;;;;11.80;99.90;;;;;;5145341;27;19919;-69
2023/04/23 04:08:19;;;;;;;;;;;11.80;99.90;;;;;;5145552;27;20118;-70
2023/04/23 04:10:45;;;;;;;;;;;11.80;99.90;;;;;;5145715;27;20218;-69
2023/04/23 04:13:12;;;;;;;;;;;11.80;99.90;;;;;;5145576;27;20441;-69
2023/04/23 04:15:40;;;;;;;;;;;11.70;99.90;;;;;;5129444;27;19996;-70
2023/04/23 04:18:07;;;;;;;;;;;11.80;99.90;;;;;;5145234;27;19926;-69
2023/04/23 04:20:33;;;;;;;;;;;11.80;99.90;;;;;;5145427;27;20148;-70
2023/04/23 04:23:00;;;;;;;;;;;11.80;99.90;;;;;;5145245;27;19986;-69
2023/04/23 04:25:27;;;;;;;;;;;11.80;99.90;;;;;;5145259;27;19919;-70
2023/04/23 04:27:54;;;;;;;;;;;11.70;99.90;;;;;;5125082;27;19957;-69
2023/04/23 04:30:20;;;;;;;;;;;11.70;99.90;;;;;;5124771;28;19986;-70
2023/04/23 04:32:49;;;;;;;;;;;11.70;99.90;;;;;;5124609;28;19986;-69
2023/04/23 04:35:16;;;;;;;;;;;11.70;99.90;;;;;;5124434;28;19919;-71
2023/04/23 04:37:43;;;;;;;;;;;11.70;99.90;;;;;;5124428;28;19986;-69
2023/04/23 04:40:11;;;;;;;;;;;11.80;99.90;;;;;;5123483;28;19941;-69
2023/04/23 04:42:38;;;;;;;;;;;11.70;99.90;;;;;;5124463;28;19942;-70
2023/04/23 04:45:07;;;;;;;;;;;11.80;99.90;;;;;;5123908;28;20204;-68
2023/04/23 04:47:34;;;;;;;;;;;11.80;99.90;;;;;;5123999;28;19920;-71
2023/04/23 04:50:02;;;;;;;;;;;11.80;99.90;;;;;;5128921;27;20192;-70
2023/04/23 04:52:28;;;;;;;;;;;11.80;99.90;;;;;;5136468;27;20175;-69
2023/04/23 04:54:55;;;;;;;;;;;11.80;99.90;;;;;;5144544;27;19920;-70
2023/04/23 04:57:22;;;;;;;;;;;11.90;99.90;;;;;;5143766;27;20007;-71
2023/04/23 04:59:49;;;;;;;;;;;11.90;99.90;;;;;;5144589;27;20093;-71
2023/04/23 05:02:15;;;;;;;;;;;12.00;99.90;;;;;;5144475;27;20096;-69
2023/04/23 05:04:42;;;;;;;;;;;11.90;99.90;;;;;;5144488;27;19919;-68
2023/04/23 05:07:10;;;;;;;;;;;11.90;99.90;;;;;;5143886;27;19987;-69
2023/04/23 05:09:37;;;;;;;;;;;11.90;99.90;;;;;;5144369;27;20093;-70
2023/04/23 05:12:06;;;;;;;;;;;11.90;99.90;;;;;;5144493;27;19962;-68
2023/04/23 05:14:32;;;;;;;;;;;11.90;99.90;;;;;;5144574;27;19926;-71
2023/04/23 05:16:59;;;;;;;;;;;11.90;99.90;;;;;;5143711;27;19919;-69
2023/04/23 05:19:26;;;;;;;;;;;11.90;99.90;;;;;;5131058;27;19919;-69
2023/04/23 05:21:52;;;;;;;;;;;11.90;99.90;;;;;;5141885;27;19926;-69
2023/04/23 05:24:20;;;;;;;;;;;11.90;99.90;;;;;;5144522;27;19919;-70
2023/04/23 05:26:47;;;;;;;;;;;11.90;99.90;;;;;;5143511;27;19920;-70
2023/04/23 05:29:18;;;;;;;;;;;11.90;99.90;;;;;;5138340;28;19954;-69
2023/04/23 05:31:45;;;;;;;;;;;11.90;99.90;;;;;;5144355;28;19926;-70
2023/04/23 05:34:11;;;;;;;;;;;12.00;99.90;;;;;;5144190;28;19919;-71
2023/04/23 05:36:38;;;;;;;;;;;12.00;99.90;;;;;;5143768;28;19942;-69
2023/04/23 05:39:05;;;;;;;;;;;12.00;99.90;;;;;;5141878;28;19921;-69
2023/04/23 05:41:33;;;;;;;;;;;12.00;99.90;;;;;;5144257;28;19926;-71
2023/04/23 05:44:00;;;;;;;;;;;12.00;99.90;;;;;;5143917;28;19920;-71
2023/04/23 05:46:27;;;;;;;;;;;12.00;99.90;;;;;;5143484;28;19951;-69
2023/04/23 05:48:54;;;;;;;;;;;12.00;99.90;;;;;;5144410;28;20298;-71
2023/04/23 05:51:20;;;;;;;;;;;12.00;99.90;;;;;;5144263;28;19920;-70
2023/04/23 05:53:47;;;;;;;;;;;12.10;99.90;;;;;;5144231;28;19986;-70
2023/04/23 05:56:13;;;;;;;;;;;12.00;99.90;;;;;;5143495;28;19919;-69
2023/04/23 05:58:41;;;;;;;;;;;12.00;99.90;;;;;;5144144;28;19967;-69
2023/04/23 06:01:08;;;;;;;;;;;12.00;99.90;;;;;;5143808;28;20199;-69
2023/04/23 06:03:35;;;;;;;;;;;12.10;99.90;;;;;;5144130;28;19934;-71
2023/04/23 06:06:02;;;;;;;;;;;12.10;99.90;;;;;;5143623;28;20204;-69
2023/04/23 06:08:28;;;;;;;;;;;12.10;99.90;;;;;;5144707;27;20203;-69
2023/04/23 06:10:55;;;;;;;;;;;12.10;99.90;;;;;;5148062;27;19976;-69
2023/04/23 06:13:22;;;;;;;;;;;12.10;99.90;;;;;;5133160;27;20156;-69
2023/04/23 06:15:50;;;;;;;;;;;12.10;99.90;;;;;;5126479;28;20274;-68
2023/04/23 06:18:16;;;;;;;;;;;12.10;99.90;;;;;;5126765;28;19954;-70
2023/04/23 06:20:43;;;;;;;;;;;12.10;99.90;;;;;;5127230;28;20157;-70
2023/04/23 06:23:13;;;;;;;;;;;12.20;99.90;;;;;;5127332;28;19987;-70
2023/04/23 06:25:39;;;;;;;;;;;12.20;99.90;;;;;;5144909;27;19924;-69
2023/04/23 06:28:06;;;;;;;;;;;12.10;99.90;;;;;;5147595;27;19919;-69
2023/04/23 06:30:33;;;;;;;;;;;12.20;99.90;;;;;;5147357;27;19986;-69
2023/04/23 06:33:01;;;;;;;;;;;12.20;99.90;;;;;;5146960;27;20246;-70
2023/04/23 06:35:27;;;;;;;;;;;12.10;99.90;;;;;;5147353;27;19920;-70
2023/04/23 06:37:55;;;;;;;;;;;12.10;99.90;;;;;;5146969;27;19986;-71
2023/04/23 06:40:21;;;;;;;;;;;12.10;99.90;;;;;;5144957;27;20234;-69
2023/04/23 06:42:48;;;;;;;;;;;12.10;99.90;;;;;;5147613;27;19986;-71
2023/04/23 06:45:15;;;;;;;;;;;12.10;99.90;;;;;;5147198;27;19925;-70
2023/04/23 06:47:42;;;;;;;;;;;12.10;99.90;;;;;;5146818;27;19990;-70
2023/04/23 06:50:10;;;;;;;;;;;12.20;99.90;;;;;;5147429;27;19950;-69
2023/04/23 06:52:37;;;;;;;;;;;12.20;99.90;;;;;;5147071;27;20115;-69
2023/04/23 06:55:04;;;;;;;;;;;12.20;99.90;;;;;;5146852;27;20393;-69
2023/04/23 06:57:30;;;;;;;;;;;12.20;99.90;;;;;;5146251;27;19926;-68
2023/04/23 06:59:57;;;;;;;;;;;12.30;99.90;;;;;;5146935;27;19957;-70
2023/04/23 07:02:23;;;;;;;;;;;12.30;99.90;;;;;;5146974;27;20171;-69
2023/04/23 07:04:50;;;;;;;;;;;12.30;99.90;;;;;;5146458;27;20266;-70
2023/04/23 07:07:18;;;;;;;;;;;12.30;99.90;;;;;;5146306;27;19990;-70
2023/04/23 07:09:45;;;;;;;;;;;12.40;99.90;;;;;;5146791;27;19919;-69
2023/04/23 07:12:11;;;;;;;;;;;12.40;99.90;;;;;;5146628;27;20031;-69
2023/04/23 07:14:38;;;;;;;;;;;12.30;99.90;;;;;;5146792;27;20171;-69
2023/04/23 07:17:04;;;;;;;;;;;12.30;99.90;;;;;;5146127;27;19987;-70
2023/04/23 07:19:31;;;;;;;;;;;12.40;99.90;;;;;;5146301;27;20028;-69
2023/04/23 07:21:58;;;;;;;;;;;12.40;99.90;;;;;;5145831;27;19982;-69
2023/04/23 07:24:26;;;;;;;;;;;12.50;99.90;;;;;;5146469;27;19958;-69
2023/04/23 07:26:53;;;;;;;;;;;12.60;99.90;;;;;;5145894;27;19919;-69
2023/04/23 07:29:19;;;;;;;;;;;12.70;99.90;;;;;;5146754;27;19937;-69
2023/04/23 07:31:47;;;;;;;;;;;12.80;99.90;;;;;;5146502;27;19950;-70
2023/04/23 07:34:13;;;;;;;;;;;12.70;99.90;;;;;;5146491;27;20127;-70
2023/04/23 07:36:40;;;;;;;;;;;12.70;99.90;;;;;;5145112;27;19920;-69
2023/04/23 07:39:06;;;;;;;;;;;12.80;99.90;;;;;;5143218;27;19950;-70
2023/04/23 07:41:35;;;;;;;;;;;12.80;99.90;;;;;;5146233;27;19919;-70
2023/04/23 07:44:02;;;;;;;;;;;12.90;99.90;;;;;;5146246;27;19982;-69
2023/04/23 07:46:28;;;;;;;;;;;12.80;99.90;;;;;;5145519;27;20154;-69
2023/04/23 07:48:55;;;;;;;;;;;12.80;99.90;;;;;;5145800;27;19920;-70
2023/04/23 07:51:25;;;;;;;;;;;12.70;99.90;;;;;;5125454;28;19920;-71
2023/04/23 07:53:53;;;;;;;;;;;12.70;99.90;;;;;;5125505;28;19920;-70
2023/04/23 07:56:20;;;;;;;;;;;12.60;99.90;;;;;;5124798;28;19920;-72
2023/04/23 07:58:48;;;;;;;;;;;12.60;99.90;;;;;;5125390;28;19920;-69
2023/04/23 08:01:14;;;;;;;;;;;12.70;99.90;;;;;;5125055;28;20115;-69
2023/04/23 08:03:41;;;;;;;;;;;12.60;99.90;;;;;;5125067;28;19920;-71
2023/04/23 08:06:08;;;;;;;;;;;12.60;99.90;;;;;;5124598;28;20231;-69
2023/04/23 08:08:35;;;;;;;;;;;12.70;99.90;;;;;;5137930;27;19926;-69
2023/04/23 08:11:01;;;;;;;;;;;12.70;99.90;;;;;;5145433;27;19946;-71
2023/04/23 08:13:28;;;;;;;;;;;12.70;99.90;;;;;;5145668;27;19986;-73
2023/04/23 08:15:56;;;;;;;;;;;12.80;99.90;;;;;;5145134;27;19994;-71
2023/04/23 08:18:22;;;;;;;;;;;12.90;99.90;;;;;;5144826;27;20184;-69
2023/04/23 08:20:49;;;;;;;;;;;12.90;99.90;;;;;;5145179;27;19986;-70
2023/04/23 08:23:16;;;;;;;;;;;12.90;99.90;;;;;;5144803;27;19919;-70
2023/04/23 08:25:43;;;;;;;;;;;12.90;99.90;;;;;;5144882;27;20010;-71
2023/04/23 08:28:09;;;;;;;;;;;13.00;99.90;;;;;;5144393;27;19926;-70
2023/04/23 08:30:36;;;;;;;;;;;13.10;99.90;;;;;;5145036;27;20003;-70
2023/04/23 08:33:04;;;;;;;;;;;13.20;99.90;;;;;;5144010;27;19927;-70
2023/04/23 08:35:31;;;;;;;;;;;13.30;99.90;;;;;;5144609;27;20173;-69
2023/04/23 08:37:57;;;;;;;;;;;13.50;99.90;;;;;;5144429;27;19926;-71
2023/04/23 08:40:25;;;;;;;;;;;13.70;99.90;;;;;;5145084;27;19990;-69
2023/04/23 08:42:55;;;;;;;;;;;13.80;99.90;;;;;;5145018;27;20215;-70
2023/04/23 08:45:21;;;;;;;;;;;13.90;99.90;;;;;;5145334;27;19927;-69
2023/04/23 08:47:48;;;;;;;;;;;14.00;99.90;;;;;;5144597;27;19920;-69
2023/04/23 08:50:18;;;;;;;;;;;14.00;99.90;;;;;;5144774;27;20334;-70
2023/04/23 08:52:46;;;;;;;;;;;14.10;99.90;;;;;;5144761;27;19941;-70
2023/04/23 08:55:14;;;;;;;;;;;14.00;99.90;;;;;;5144807;27;19919;-69
2023/04/23 08:57:41;;;;;;;;;;;14.10;99.90;;;;;;5144555;27;20146;-70
2023/04/23 09:00:09;;;;;;;;;;;14.10;99.90;;;;;;5144509;27;19986;-70
2023/04/23 09:02:36;;;;;;;;;;;14.10;99.90;;;;;;5144636;27;19920;-69
2023/04/23 09:05:03;;;;;;;;;;;14.20;99.90;;;;;;5144633;27;19986;-70
2023/04/23 09:07:32;;;;;;;;;;;14.30;99.90;;;;;;5143761;27;20097;-69
2023/04/23 09:09:59;;;;;;;;;;;14.30;99.90;;;;;;5144738;27;19969;-69
2023/04/23 09:12:26;;;;;;;;;;;14.30;99.90;;;;;;5144513;27;20134;-69
2023/04/23 09:14:52;;;;;;;;;;;14.30;99.90;;;;;;5130196;27;19920;-71
2023/04/23 09:17:20;;;;;;;;;;;14.30;99.90;;;;;;5123277;28;19930;-67
2023/04/23 09:19:47;;;;;;;;;;;14.30;99.90;;;;;;5123881;28;19982;-67
2023/04/23 09:22:13;;;;;;;;;;;14.40;99.90;;;;;;5124336;27;19987;-67
2023/04/23 09:24:43;;;;;;;;;;;14.40;99.90;;;;;;5144273;27;19958;-68
2023/04/23 09:27:09;;;;;;;;;;;14.40;99.90;;;;;;5143613;27;20317;-69
2023/04/23 09:29:36;;;;;;;;;;;14.50;99.90;;;;;;5144401;28;19919;-69
2023/04/23 09:32:06;;;;;;;;;;;14.50;99.90;;;;;;5123699;28;19987;-73
2023/04/23 09:34:34;;;;;;;;;;;14.60;99.90;;;;;;5144086;28;20146;-71
2023/04/23 09:37:02;;;;;;;;;;;14.60;99.90;;;;;;5143310;28;20152;-69
2023/04/23 09:39:29;;;;;;;;;;;14.60;99.90;;;;;;5144308;28;19933;-69
2023/04/23 09:42:02;;;;;;;;;;;14.60;99.90;;;;;;5144160;28;19986;-69
2023/04/23 09:44:31;;;;;;;;;;;14.60;99.90;;;;;;5146433;27;19978;-69
2023/04/23 09:47:05;;;;;;;;;;;14.60;99.90;;;;;;5147320;27;19991;-70
2023/04/23 09:49:32;;;;;;;;;;;14.60;99.90;;;;;;5148495;27;19919;-73
2023/04/23 09:52:05;;;;;;;;;;;14.60;99.90;;;;;;5148305;27;19987;-69
2023/04/23 09:54:32;;;;;;;;;;;14.60;99.90;;;;;;5148215;27;20243;-69
2023/04/23 09:57:01;;;;;;;;;;;14.60;99.90;;;;;;5147446;27;19969;-70
2023/04/23 09:59:28;;;;;;;;;;;14.50;99.90;;;;;;5148121;27;19962;-68
2023/04/23 10:01:55;;;;;;;;;;;14.50;99.90;;;;;;5146768;27;19920;-69
2023/04/23 10:04:22;;;;;;;;;;;14.50;99.90;;;;;;5159883;27;19990;-69
2023/04/23 10:06:53;;;;;;;;;;;14.50;99.90;;;;;;5147300;27;19926;-69
2023/04/23 10:09:23;;;;;;;;;;;14.40;99.90;;;;;;5157619;27;19982;-71
2023/04/23 10:11:51;;;;;;;;;;;14.50;99.90;;;;;;5168779;27;19919;-71
2023/04/23 10:14:19;;;;;;;;;;;14.60;99.90;;;;;;5160711;27;19990;-70
2023/04/23 10:16:46;;;;;;;;;;;14.60;99.90;;;;;;5144386;27;20110;-69
2023/04/23 10:19:14;;;;;;;;;;;14.70;99.90;;;;;;5147760;27;19919;-69
2023/04/23 10:21:41;;;;;;;;;;;14.80;99.90;;;;;;5154382;27;19919;-69
2023/04/23 10:24:09;;;;;;;;;;;14.90;99.90;;;;;;5168588;27;19919;-74
2023/04/23 10:26:38;;;;;;;;;;;15.00;99.90;;;;;;5150600;27;19920;-70
2023/04/23 10:29:05;;;;;;;;;;;15.10;99.90;;;;;;5147629;27;19987;-69
2023/04/23 10:31:33;;;;;;;;;;;15.10;99.90;;;;;;5144857;27;19924;-71
2023/04/23 10:34:04;;;;;;;;;;;15.20;99.90;;;;;;5146971;27;19927;-72
2023/04/23 10:36:32;;;;;;;;;;;15.30;99.90;;;;;;5144136;27;19919;-69
2023/04/23 10:39:02;;;;;;;;;;;15.50;99.90;;;;;;5145077;27;19919;-70
2023/04/23 10:41:33;;;;;;;;;;;15.60;99.90;;;;;;5141032;27;19920;-71
2023/04/23 10:44:00;;;;;;;;;;;15.80;99.90;;;;;;5140179;27;19955;-70
2023/04/23 10:46:29;;;;;;;;;;;16.00;99.90;;;;;;5140627;27;19978;-70
2023/04/23 10:49:07;;;;;;;;;;;16.30;99.90;;;;;;5144618;27;19933;-71
2023/04/23 10:51:34;;;;;;;;;;;16.50;99.90;;;;;;5140972;27;20247;-70
2023/04/23 10:54:02;;;;;;;;;;;16.80;99.90;;;;;;5146925;27;19934;-69
2023/04/23 10:56:29;;;;;;;;;;;17.10;99.90;;;;;;5146188;27;19920;-71
2023/04/23 10:58:56;;;;;;;;;;;17.40;99.90;;;;;;5144166;27;20175;-71
2023/04/23 11:01:24;;;;;;;;;;;17.70;99.90;;;;;;5141030;27;19991;-69
2023/04/23 11:03:51;;;;;;;;;;;17.90;99.90;;;;;;5143372;27;19947;-71
2023/04/23 11:06:42;;;;;;;;;;;17.90;99.90;;;;;;5149794;27;20178;-72
2023/04/23 11:09:23;;;;;;;;;;;17.90;99.90;;;;;;5165570;27;19919;-71
2023/04/23 11:11:50;;;;;;;;;;;18.00;99.90;;;;;;5139963;27;19919;-71
2023/04/23 11:14:16;;;;;;;;;;;18.00;99.90;;;;;;5146663;27;19987;-72
2023/04/23 11:16:43;;;;;;;;;;;18.10;99.90;;;;;;5145646;27;19986;-72
2023/04/23 11:19:11;;;;;;;;;;;17.90;99.90;;;;;;5146701;27;19941;-71
2023/04/23 11:21:58;;;;;;;;;;;17.90;99.90;;;;;;5146662;27;19962;-70
2023/04/23 11:24:26;;;;;;;;;;;17.80;99.90;;;;;;5138034;27;19919;-70
2023/04/23 11:26:53;;;;;;;;;;;17.70;99.90;;;;;;5145755;27;20258;-71
2023/04/23 11:29:21;;;;;;;;;;;17.50;99.90;;;;;;5146361;27;19923;-71
2023/04/23 11:31:48;;;;;;;;;;;17.60;99.90;;;;;;5142372;27;20682;-72
2023/04/23 11:34:14;;;;;;;;;;;17.50;99.90;;;;;;5146275;27;19920;-72
2023/04/23 11:36:41;;;;;;;;;;;17.60;99.90;;;;;;5145451;27;20118;-71
2023/04/23 11:39:08;;;;;;;;;;;17.70;99.90;;;;;;5146361;27;19946;-71
2023/04/23 11:41:36;;;;;;;;;;;17.80;99.90;;;;;;5138875;27;19920;-72
2023/04/23 11:44:05;;;;;;;;;;;18.00;99.90;;;;;;5136391;27;19927;-71
2023/04/23 11:46:32;;;;;;;;;;;18.00;99.90;;;;;;5145433;27;19923;-69
2023/04/23 11:48:59;;;;;;;;;;;18.00;99.90;;;;;;5146150;27;19933;-69
2023/04/23 11:51:26;;;;;;;;;;;17.90;99.90;;;;;;5145691;27;19983;-69
2023/04/23 11:53:53;;;;;;;;;;;17.70;99.90;;;;;;5139363;27;19988;-70
2023/04/23 11:56:20;;;;;;;;;;;17.70;99.90;;;;;;5149977;27;19981;-69
2023/04/23 11:58:48;;;;;;;;;;;17.50;99.90;;;;;;5149046;27;19934;-69
2023/04/23 12:01:14;;;;;;;;;;;17.40;99.90;;;;;;5145712;27;19983;-70
2023/04/23 12:03:48;;;;;;;;;;;17.40;99.90;;;;;;5145612;27;19951;-70
2023/04/23 12:06:15;;;;;;;;;;;17.50;99.90;;;;;;5163202;27;20266;-70
2023/04/23 12:08:42;;;;;;;;;;;17.40;99.90;;;;;;5147092;27;19925;-70
2023/04/23 12:11:11;;;;;;;;;;;17.40;99.90;;;;;;5143749;27;20190;-68
2023/04/23 12:13:40;;;;;;;;;;;17.40;99.90;;;;;;5124059;27;19984;-68
2023/04/23 12:16:08;;;;;;;;;;;17.40;99.90;;;;;;5141712;27;19942;-69
2023/04/23 12:18:41;;;;;;;;;;;17.40;99.90;;;;;;5143533;27;19919;-69
2023/04/23 12:21:08;;;;;;;;;;;17.40;99.90;;;;;;5142703;27;19926;-69
2023/04/23 12:23:35;;;;;;;;;;;17.50;99.90;;;;;;5166245;27;20088;-70
2023/04/23 12:26:03;;;;;;;;;;;17.70;99.90;;;;;;5165598;27;19927;-70
2023/04/23 12:28:30;;;;;;;;;;;18.00;99.90;;;;;;5153232;27;20231;-70
2023/04/23 12:30:59;;;;;;;;;;;18.40;99.90;;;;;;5162923;27;19935;-69
2023/04/23 12:33:28;;;;;;;;;;;18.70;99.90;;;;;;5147462;27;19926;-70
2023/04/23 12:35:55;;;;;;;;;;;18.70;99.90;;;;;;5155720;27;19978;-69
2023/04/23 12:38:22;;;;;;;;;;;18.60;99.90;;;;;;5131443;27;19920;-71
2023/04/23 12:40:49;;;;;;;;;;;18.50;99.90;;;;;;5124260;28;19924;-69
2023/04/23 12:43:15;;;;;;;;;;;18.40;99.90;;;;;;5124380;28;20169;-70
2023/04/23 12:45:42;;;;;;;;;;;18.20;99.90;;;;;;5139705;27;19919;-70
2023/04/23 12:48:08;;;;;;;;;;;18.10;99.90;;;;;;5156444;27;20227;-71
2023/04/23 12:50:37;;;;;;;;;;;18.00;99.90;;;;;;5159728;27;19982;-67
2023/04/23 12:53:05;;;;;;;;;;;18.10;99.90;;;;;;5140542;27;19965;-69
2023/04/23 12:55:31;;;;;;;;;;;18.20;99.90;;;;;;5144543;27;20349;-71
2023/04/23 12:57:58;;;;;;;;;;;18.20;99.90;;;;;;5147567;27;19963;-69
2023/04/23 13:00:25;;;;;;;;;;;18.20;99.90;;;;;;5148391;27;19954;-69
2023/04/23 13:02:52;;;;;;;;;;;18.20;99.90;;;;;;5164765;27;19919;-69
2023/04/23 13:05:18;;;;;;;;;;;17.90;99.90;;;;;;5164632;27;19919;-69
2023/04/23 13:07:46;;;;;;;;;;;17.80;99.90;;;;;;5164401;27;19961;-69
2023/04/23 13:10:13;;;;;;;;;;;17.80;99.90;;;;;;5158463;27;19982;-69
2023/04/23 13:12:40;;;;;;;;;;;17.70;99.90;;;;;;5143810;27;20235;-71
2023/04/23 13:15:07;;;;;;;;;;;17.70;99.90;;;;;;5144284;27;19961;-70
2023/04/23 13:17:34;;;;;;;;;;;17.70;99.90;;;;;;5143166;27;19919;-69
2023/04/23 13:20:01;;;;;;;;;;;17.80;99.90;;;;;;5122486;28;19983;-69
2023/04/23 13:22:28;;;;;;;;;;;17.80;99.90;;;;;;5122383;28;20214;-69
2023/04/23 13:24:57;;;;;;;;;;;17.80;99.90;;;;;;5123779;28;19927;-71
2023/04/23 13:27:24;;;;;;;;;;;17.80;99.90;;;;;;5123329;28;19987;-70
2023/04/23 13:29:51;;;;;;;;;;;17.80;99.90;;;;;;5123770;28;19926;-71
2023/04/23 13:32:17;;;;;;;;;;;17.90;99.90;;;;;;5123579;28;19934;-71
2023/04/23 13:34:44;;;;;;;;;;;17.90;99.90;;;;;;5123854;28;19951;-69
2023/04/23 13:37:10;;;;;;;;;;;17.90;99.90;;;;;;5140349;28;19982;-69
2023/04/23 13:39:37;;;;;;;;;;;17.80;99.90;;;;;;5134650;28;19932;-69
2023/04/23 13:42:05;;;;;;;;;;;17.80;99.90;;;;;;5137229;28;20111;-69
2023/04/23 13:44:32;;;;;;;;;;;17.80;99.90;;;;;;5138284;28;20107;-69
2023/04/23 13:46:58;;;;;;;;;;;17.80;99.90;;;;;;5142785;28;19990;-70
2023/04/23 13:49:25;;;;;;;;;;;17.70;99.90;;;;;;5144055;28;19919;-70
2023/04/23 13:51:53;;;;;;;;;;;17.60;99.90;;;;;;5138759;28;19955;-69
2023/04/23 13:54:19;;;;;;;;;;;17.60;99.90;;;;;;5121009;28;19995;-69
2023/04/23 13:56:46;;;;;;;;;;;17.60;99.90;;;;;;5123289;28;19920;-71
2023/04/23 13:59:14;;;;;;;;;;;17.50;99.90;;;;;;5122814;28;19920;-70
2023/04/23 14:01:40;;;;;;;;;;;17.50;99.90;;;;;;5138022;28;19983;-69
2023/04/23 14:04:07;;;;;;;;;;;17.70;99.90;;;;;;5143924;28;19919;-68
2023/04/23 14:06:34;;;;;;;;;;;17.80;99.90;;;;;;5142829;28;20255;-69
2023/04/23 14:09:01;;;;;;;;;;;18.00;99.90;;;;;;5137355;28;19979;-68
2023/04/23 14:11:27;;;;;;;;;;;18.10;99.90;;;;;;5122915;28;19943;-69
2023/04/23 14:13:55;;;;;;;;;;;18.20;99.90;;;;;;5123302;28;19962;-68
2023/04/23 14:16:23;;;;;;;;;;;18.40;99.90;;;;;;5123141;28;20006;-70